Fenn, Idaho
Current Conditions -  °F | °C
As of 9:35 AM on Thursday 23 Oct 2014 (Local Time) from KGIC Reporting Station
Clear Clear  
Wind Chill: 58°   Ceiling: Unl
Heat Index: 58°   Visibility: 10mi
Dew Point: 39°   Wind: 24mph
Humidity: 49%   Direction: 210°SSW
Pressure: 29.89"   Gusts: 32mph
Location:  45.96°N, 116.26°W
Report Text: KGIC 231635Z AUTO 21021G28KT 10SM CLR 15/04 A2989 RMK AO1 T01450039
Loading
Personal Weather Stations






























Interactive Weather Map
Tropical Storm Tracking
New forecast layout! Learn more

10-Day Weather Forecast

Advertisements
Track Severe Weather on mobile